Terminal Aerodrome Forecast
Issued by NWS Shreveport, LA

Home | Current Version | Previous Version | Text Only | Print | Product List | Glossary On
Versions: 1 2 3 4 5 6 7 8 9 10 11 12 13 14 15 16 17
767
FTUS44 KSHV 040935 AAC
TAFMLU
TAF AMD
KMLU 040935Z 0410/0506 36009KT 6SM BR VCSH BKN005 OVC012
      TEMPO 0410/0412 3SM -RA BR OVC005
     FM041200 05007KT 6SM BR OVC005
     FM041500 03005KT P6SM VCSH OVC010
      TEMPO 0415/0418 4SM -RA BR OVC008
     FM050100 01005KT P6SM OVC015=

USA.gov is the U.S. government's official web portal to all federal, state and local government web resources and services.